sensor_id;sensor_type;location;lat;lon;timestamp;pressure;altitude;pressure_sealevel;temperature;humidity
51759;BME280;66684;47.568;18.734;2023-03-21T00:01:12;99499.22;;;9.65;100.00
51759;BME280;66684;47.568;18.734;2023-03-21T00:03:39;99500.91;;;9.65;100.00
51759;BME280;66684;47.568;18.734;2023-03-21T00:06:07;99504.38;;;9.65;100.00
51759;BME280;66684;47.568;18.734;2023-03-21T00:08:33;99498.53;;;9.69;100.00
51759;BME280;66684;47.568;18.734;2023-03-21T00:11:04;99496.78;;;9.68;100.00
51759;BME280;66684;47.568;18.734;2023-03-21T00:13:32;99500.50;;;9.75;100.00
51759;BME280;66684;47.568;18.734;2023-03-21T00:16:11;99503.25;;;9.80;100.00
51759;BME280;66684;47.568;18.734;2023-03-21T00:18:45;99503.19;;;9.78;100.00
51759;BME280;66684;47.568;18.734;2023-03-21T00:21:14;99502.22;;;9.75;100.00
51759;BME280;66684;47.568;18.734;2023-03-21T00:23:40;99499.41;;;9.49;100.00
51759;BME280;66684;47.568;18.734;2023-03-21T00:26:06;99501.53;;;9.19;100.00
51759;BME280;66684;47.568;18.734;2023-03-21T00:28:41;99500.81;;;9.04;100.00
51759;BME280;66684;47.568;18.734;2023-03-21T00:31:08;99497.50;;;8.87;100.00
51759;BME280;66684;47.568;18.734;2023-03-21T00:33:34;99498.53;;;8.73;100.00
51759;BME280;66684;47.568;18.734;2023-03-21T00:36:01;99490.91;;;8.74;100.00
51759;BME280;66684;47.568;18.734;2023-03-21T00:38:27;99492.38;;;8.69;100.00
51759;BME280;66684;47.568;18.734;2023-03-21T00:40:53;99487.97;;;8.67;100.00
51759;BME280;66684;47.568;18.734;2023-03-21T00:43:19;99479.16;;;8.61;100.00
51759;BME280;66684;47.568;18.734;2023-03-21T00:45:49;99468.88;;;8.61;100.00
51759;BME280;66684;47.568;18.734;2023-03-21T00:48:17;99477.25;;;8.57;100.00
51759;BME280;66684;47.568;18.734;2023-03-21T00:50:45;99478.25;;;8.61;100.00
51759;BME280;66684;47.568;18.734;2023-03-21T00:53:14;99477.25;;;8.57;100.00
51759;BME280;66684;47.568;18.734;2023-03-21T00:55:40;99469.47;;;8.38;100.00
51759;BME280;66684;47.568;18.734;2023-03-21T00:58:06;99470.62;;;8.62;100.00
51759;BME280;66684;47.568;18.734;2023-03-21T01:00:33;99470.84;;;8.86;100.00
51759;BME280;66684;47.568;18.734;2023-03-21T01:03:03;99460.94;;;8.76;100.00
51759;BME280;66684;47.568;18.734;2023-03-21T01:05:37;99467.13;;;8.99;100.00
51759;BME280;66684;47.568;18.734;2023-03-21T01:08:22;99462.09;;;9.22;100.00
51759;BME280;66684;47.568;18.734;2023-03-21T01:10:49;99455.81;;;9.36;100.00
51759;BME280;66684;47.568;18.734;2023-03-21T01:13:18;99462.94;;;9.41;100.00
51759;BME280;66684;47.568;18.734;2023-03-21T01:15:50;99455.81;;;9.36;100.00
51759;BME280;66684;47.568;18.734;2023-03-21T01:18:18;99451.75;;;9.41;100.00
51759;BME280;66684;47.568;18.734;2023-03-21T01:20:45;99453.50;;;9.42;100.00
51759;BME280;66684;47.568;18.734;2023-03-21T01:23:12;99459.22;;;9.35;100.00
51759;BME280;66684;47.568;18.734;2023-03-21T01:25:38;99461.06;;;9.37;100.00
51759;BME280;66684;47.568;18.734;2023-03-21T01:28:05;99460.47;;;9.43;100.00
51759;BME280;66684;47.568;18.734;2023-03-21T01:30:31;99460.47;;;9.43;100.00
51759;BME280;66684;47.568;18.734;2023-03-21T01:32:57;99460.19;;;9.37;100.00
51759;BME280;66684;47.568;18.734;2023-03-21T01:35:23;99457.31;;;9.50;100.00
51759;BME280;66684;47.568;18.734;2023-03-21T01:37:49;99459.34;;;9.57;100.00
51759;BME280;66684;47.568;18.734;2023-03-21T01:40:22;99462.84;;;9.59;100.00
51759;BME280;66684;47.568;18.734;2023-03-21T01:42:49;99455.06;;;9.58;100.00
51759;BME280;66684;47.568;18.734;2023-03-21T01:48:19;99456.94;;;9.62;100.00
51759;BME280;66684;47.568;18.734;2023-03-21T01:50:46;99452.31;;;9.55;100.00
51759;BME280;66684;47.568;18.734;2023-03-21T01:53:13;99452.16;;;9.50;100.00
51759;BME280;66684;47.568;18.734;2023-03-21T01:55:40;99446.47;;;9.38;100.00
51759;BME280;66684;47.568;18.734;2023-03-21T01:58:08;99452.56;;;9.40;100.00
51759;BME280;66684;47.568;18.734;2023-03-21T02:00:36;99448.09;;;9.36;100.00
51759;BME280;66684;47.568;18.734;2023-03-21T02:03:05;99452.25;;;9.32;100.00
51759;BME280;66684;47.568;18.734;2023-03-21T02:08:15;99456.78;;;9.38;100.00
51759;BME280;66684;47.568;18.734;2023-03-21T02:10:43;99454.28;;;9.39;100.00
51759;BME280;66684;47.568;18.734;2023-03-21T02:13:10;99451.63;;;9.38;100.00
51759;BME280;66684;47.568;18.734;2023-03-21T02:15:37;99451.38;;;9.32;100.00
51759;BME280;66684;47.568;18.734;2023-03-21T02:18:06;99449.41;;;9.26;100.00
51759;BME280;66684;47.568;18.734;2023-03-21T02:21:10;99453.53;;;9.23;100.00
51759;BME280;66684;47.568;18.734;2023-03-21T02:33:18;99439.66;;;9.00;100.00
51759;BME280;66684;47.568;18.734;2023-03-21T02:44:43;99444.87;;;9.01;100.00
51759;BME280;66684;47.568;18.734;2023-03-21T02:47:16;99450.56;;;9.13;100.00
51759;BME280;66684;47.568;18.734;2023-03-21T02:50:04;99451.41;;;9.12;100.00
51759;BME280;66684;47.568;18.734;2023-03-21T02:52:33;99444.72;;;8.98;100.00
51759;BME280;66684;47.568;18.734;2023-03-21T02:55:01;99451.41;;;8.93;100.00
51759;BME280;66684;47.568;18.734;2023-03-21T02:57:30;99446.31;;;8.75;100.00
51759;BME280;66684;47.568;18.734;2023-03-21T02:59:57;99444.72;;;8.79;100.00
51759;BME280;66684;47.568;18.734;2023-03-21T03:02:26;99437.75;;;8.76;100.00
51759;BME280;66684;47.568;18.734;2023-03-21T03:04:52;99446.25;;;8.74;100.00
51759;BME280;66684;47.568;18.734;2023-03-21T03:10:43;99451.72;;;8.81;100.00
51759;BME280;66684;47.568;18.734;2023-03-21T03:19:09;99452.00;;;8.68;100.00
51759;BME280;66684;47.568;18.734;2023-03-21T03:21:40;99443.56;;;8.53;100.00
51759;BME280;66684;47.568;18.734;2023-03-21T03:24:23;99451.81;;;8.10;100.00
51759;BME280;66684;47.568;18.734;2023-03-21T03:27:13;99449.38;;;8.13;100.00
51759;BME280;66684;47.568;18.734;2023-03-21T03:29:41;99451.50;;;8.22;100.00
51759;BME280;66684;47.568;18.734;2023-03-21T03:32:14;99453.13;;;8.20;100.00
51759;BME280;66684;47.568;18.734;2023-03-21T03:34:49;99451.50;;;8.22;100.00
51759;BME280;66684;47.568;18.734;2023-03-21T03:37:19;99451.66;;;8.25;100.00
51759;BME280;66684;47.568;18.734;2023-03-21T03:42:43;99454.19;;;8.05;100.00
51759;BME280;66684;47.568;18.734;2023-03-21T03:45:11;99454.00;;;8.02;100.00
51759;BME280;66684;47.568;18.734;2023-03-21T03:47:51;99452.91;;;7.97;100.00
51759;BME280;66684;47.568;18.734;2023-03-21T03:50:26;99450.34;;;7.97;100.00
51759;BME280;66684;47.568;18.734;2023-03-21T03:56:03;99455.41;;;7.78;100.00
51759;BME280;66684;47.568;18.734;2023-03-21T03:58:31;99445.78;;;7.74;100.00
51759;BME280;66684;47.568;18.734;2023-03-21T04:00:59;99450.72;;;7.53;100.00
51759;BME280;66684;47.568;18.734;2023-03-21T04:03:25;99451.16;;;7.44;100.00
51759;BME280;66684;47.568;18.734;2023-03-21T04:05:51;99452.19;;;7.48;100.00
51759;BME280;66684;47.568;18.734;2023-03-21T04:08:17;99454.84;;;7.49;100.00
51759;BME280;66684;47.568;18.734;2023-03-21T04:10:43;99454.53;;;7.43;100.00
51759;BME280;66684;47.568;18.734;2023-03-21T04:13:09;99447.47;;;7.39;100.00
51759;BME280;66684;47.568;18.734;2023-03-21T04:15:35;99452.41;;;7.52;100.00
51759;BME280;66684;47.568;18.734;2023-03-21T04:18:02;99451.91;;;7.60;100.00
51759;BME280;66684;47.568;18.734;2023-03-21T04:20:28;99453.09;;;7.66;100.00
51759;BME280;66684;47.568;18.734;2023-03-21T04:22:54;99444.81;;;7.72;100.00
51759;BME280;66684;47.568;18.734;2023-03-21T04:25:21;99442.53;;;7.78;100.00
51759;BME280;66684;47.568;18.734;2023-03-21T04:27:46;99447.41;;;7.90;100.00
51759;BME280;66684;47.568;18.734;2023-03-21T04:30:13;99449.75;;;7.85;100.00
51759;BME280;66684;47.568;18.734;2023-03-21T04:32:39;99452.81;;;7.78;100.00
51759;BME280;66684;47.568;18.734;2023-03-21T04:35:07;99456.84;;;7.73;100.00
51759;BME280;66684;47.568;18.734;2023-03-21T04:37:34;99459.87;;;7.64;100.00
51759;BME280;66684;47.568;18.734;2023-03-21T04:40:02;99461.56;;;7.64;100.00
51759;BME280;66684;47.568;18.734;2023-03-21T04:42:33;99462.38;;;7.63;100.00
51759;BME280;66684;47.568;18.734;2023-03-21T04:45:00;99456.41;;;7.64;100.00
51759;BME280;66684;47.568;18.734;2023-03-21T04:47:26;99459.31;;;7.53;100.00
51759;BME280;66684;47.568;18.734;2023-03-21T04:49:52;99458.38;;;7.35;100.00
51759;BME280;66684;47.568;18.734;2023-03-21T04:52:18;99457.38;;;7.15;100.00
51759;BME280;66684;47.568;18.734;2023-03-21T04:54:44;99458.81;;;7.10;100.00
51759;BME280;66684;47.568;18.734;2023-03-21T04:57:11;99455.78;;;7.17;100.00
51759;BME280;66684;47.568;18.734;2023-03-21T04:59:37;99452.81;;;7.10;100.00
51759;BME280;66684;47.568;18.734;2023-03-21T05:02:03;99458.34;;;7.01;100.00
51759;BME280;66684;47.568;18.734;2023-03-21T05:04:29;99462.13;;;6.91;100.00
51759;BME280;66684;47.568;18.734;2023-03-21T05:06:56;99456.91;;;7.06;100.00
51759;BME280;66684;47.568;18.734;2023-03-21T05:09:22;99465.19;;;7.67;100.00
51759;BME280;66684;47.568;18.734;2023-03-21T05:11:48;99461.66;;;8.19;100.00
51759;BME280;66684;47.568;18.734;2023-03-21T05:14:18;99464.38;;;8.57;100.00
51759;BME280;66684;47.568;18.734;2023-03-21T05:16:45;99464.69;;;8.83;100.00
51759;BME280;66684;47.568;18.734;2023-03-21T05:19:19;99472.91;;;8.94;100.00
51759;BME280;66684;47.568;18.734;2023-03-21T05:21:48;99471.38;;;8.99;100.00
51759;BME280;66684;47.568;18.734;2023-03-21T05:24:16;99471.19;;;9.13;100.00
51759;BME280;66684;47.568;18.734;2023-03-21T05:26:43;99460.72;;;9.10;100.00
51759;BME280;66684;47.568;18.734;2023-03-21T05:29:15;99461.50;;;9.08;100.00
51759;BME280;66684;47.568;18.734;2023-03-21T05:31:43;99456.66;;;9.15;100.00
51759;BME280;66684;47.568;18.734;2023-03-21T05:34:11;99452.72;;;9.24;100.00
51759;BME280;66684;47.568;18.734;2023-03-21T05:36:37;99458.28;;;9.33;100.00
51759;BME280;66684;47.568;18.734;2023-03-21T05:39:04;99467.22;;;9.41;100.00
51759;BME280;66684;47.568;18.734;2023-03-21T05:41:30;99462.78;;;9.37;100.00
51759;BME280;66684;47.568;18.734;2023-03-21T05:43:56;99468.88;;;9.39;100.00
51759;BME280;66684;47.568;18.734;2023-03-21T05:46:22;99469.84;;;9.42;100.00
51759;BME280;66684;47.568;18.734;2023-03-21T05:48:48;99478.56;;;9.44;100.00
51759;BME280;66684;47.568;18.734;2023-03-21T05:51:14;99475.09;;;9.44;100.00
51759;BME280;66684;47.568;18.734;2023-03-21T05:53:40;99484.59;;;9.45;100.00
51759;BME280;66684;47.568;18.734;2023-03-21T05:56:06;99484.88;;;9.51;100.00
51759;BME280;66684;47.568;18.734;2023-03-21T05:58:33;99493.53;;;9.53;100.00
51759;BME280;66684;47.568;18.734;2023-03-21T06:00:58;99484.31;;;9.58;100.00
51759;BME280;66684;47.568;18.734;2023-03-21T06:03:24;99484.97;;;9.54;100.00
51759;BME280;66684;47.568;18.734;2023-03-21T06:05:50;99482.09;;;9.67;100.00
51759;BME280;66684;47.568;18.734;2023-03-21T06:08:16;99481.72;;;9.79;100.00
51759;BME280;66684;47.568;18.734;2023-03-21T06:10:42;99479.50;;;9.87;100.00
51759;BME280;66684;47.568;18.734;2023-03-21T06:13:08;99479.09;;;9.78;100.00
51759;BME280;66684;47.568;18.734;2023-03-21T06:15:34;99487.78;;;9.80;100.00
51759;BME280;66684;47.568;18.734;2023-03-21T06:18:00;99479.34;;;9.84;100.00
51759;BME280;66684;47.568;18.734;2023-03-21T06:20:26;99481.16;;;9.86;100.00
51759;BME280;66684;47.568;18.734;2023-03-21T06:22:52;99482.13;;;9.88;100.00
51759;BME280;66684;47.568;18.734;2023-03-21T06:25:17;99479.72;;;9.93;100.00
51759;BME280;66684;47.568;18.734;2023-03-21T06:27:43;99490.63;;;10.07;100.00
51759;BME280;66684;47.568;18.734;2023-03-21T06:30:10;99487.94;;;10.24;100.00
51759;BME280;66684;47.568;18.734;2023-03-21T06:32:36;99484.19;;;10.39;100.00
51759;BME280;66684;47.568;18.734;2023-03-21T06:35:02;99483.47;;;10.43;100.00
51759;BME280;66684;47.568;18.734;2023-03-21T06:37:28;99483.47;;;10.43;100.00
51759;BME280;66684;47.568;18.734;2023-03-21T06:39:54;99481.13;;;10.49;100.00
51759;BME280;66684;47.568;18.734;2023-03-21T06:42:20;99484.91;;;10.57;100.00
51759;BME280;66684;47.568;18.734;2023-03-21T06:44:46;99483.03;;;10.53;100.00
51759;BME280;66684;47.568;18.734;2023-03-21T06:47:12;99483.25;;;10.82;100.00
51759;BME280;66684;47.568;18.734;2023-03-21T06:49:37;99490.66;;;10.95;99.29
51759;BME280;66684;47.568;18.734;2023-03-21T06:52:03;99496.28;;;11.07;99.94
51759;BME280;66684;47.568;18.734;2023-03-21T06:54:29;99496.09;;;11.26;99.81
51759;BME280;66684;47.568;18.734;2023-03-21T06:56:55;99495.28;;;11.27;98.12
51759;BME280;66684;47.568;18.734;2023-03-21T06:59:21;99506.16;;;11.19;98.19
51759;BME280;66684;47.568;18.734;2023-03-21T07:01:47;99503.75;;;11.23;98.15
51759;BME280;66684;47.568;18.734;2023-03-21T07:04:13;99499.22;;;11.42;97.94
51759;BME280;66684;47.568;18.734;2023-03-21T07:06:39;99498.69;;;11.50;97.08
51759;BME280;66684;47.568;18.734;2023-03-21T07:09:05;99497.66;;;11.71;94.98
51759;BME280;66684;47.568;18.734;2023-03-21T07:11:31;99500.28;;;11.72;94.76
51759;BME280;66684;47.568;18.734;2023-03-21T07:13:57;99498.03;;;11.81;93.26
51759;BME280;66684;47.568;18.734;2023-03-21T07:16:23;99502.50;;;11.85;94.14
51759;BME280;66684;47.568;18.734;2023-03-21T07:18:49;99501.78;;;11.90;92.76
51759;BME280;66684;47.568;18.734;2023-03-21T07:21:16;99498.84;;;11.80;91.80
51759;BME280;66684;47.568;18.734;2023-03-21T07:23:42;99503.34;;;11.60;93.38
51759;BME280;66684;47.568;18.734;2023-03-21T07:26:08;99502.25;;;11.79;93.75
51759;BME280;66684;47.568;18.734;2023-03-21T07:28:35;99510.66;;;11.72;93.96
51759;BME280;66684;47.568;18.734;2023-03-21T07:31:04;99514.53;;;11.35;95.60
51759;BME280;66684;47.568;18.734;2023-03-21T07:33:30;99506.19;;;11.68;93.98
51759;BME280;66684;47.568;18.734;2023-03-21T07:35:57;99503.16;;;11.56;94.69
51759;BME280;66684;47.568;18.734;2023-03-21T07:38:24;99508.81;;;11.44;93.92
51759;BME280;66684;47.568;18.734;2023-03-21T07:40:50;99508.16;;;11.26;95.96
51759;BME280;66684;47.568;18.734;2023-03-21T07:43:16;99509.69;;;11.45;95.54
51759;BME280;66684;47.568;18.734;2023-03-21T07:45:43;99514.53;;;11.35;95.00
51759;BME280;66684;47.568;18.734;2023-03-21T07:48:10;99512.38;;;11.48;94.89
51759;BME280;66684;47.568;18.734;2023-03-21T07:50:42;99518.91;;;11.62;94.01
51759;BME280;66684;47.568;18.734;2023-03-21T07:53:08;99513.44;;;11.53;95.28
51759;BME280;66684;47.568;18.734;2023-03-21T07:55:34;99518.69;;;11.56;95.40
51759;BME280;66684;47.568;18.734;2023-03-21T07:58:02;99524.09;;;11.62;94.32
51759;BME280;66684;47.568;18.734;2023-03-21T08:00:28;99519.25;;;11.71;94.63
51759;BME280;66684;47.568;18.734;2023-03-21T08:02:55;99528.81;;;11.74;93.22
51759;BME280;66684;47.568;18.734;2023-03-21T08:05:22;99521.06;;;11.74;94.33
51759;BME280;66684;47.568;18.734;2023-03-21T08:07:49;99521.72;;;11.68;92.86
51759;BME280;66684;47.568;18.734;2023-03-21T08:10:16;99520.91;;;11.69;93.23
51759;BME280;66684;47.568;18.734;2023-03-21T08:12:43;99526.81;;;11.65;93.32
51759;BME280;66684;47.568;18.734;2023-03-21T08:15:09;99530.28;;;11.90;94.01
51759;BME280;66684;47.568;18.734;2023-03-21T08:17:36;99537.50;;;12.00;93.04
51759;BME280;66684;47.568;18.734;2023-03-21T08:20:04;99524.19;;;12.14;92.92
51759;BME280;66684;47.568;18.734;2023-03-21T08:22:35;99530.13;;;12.12;93.12
51759;BME280;66684;47.568;18.734;2023-03-21T08:25:03;99525.72;;;12.08;91.95
51759;BME280;66684;47.568;18.734;2023-03-21T08:27:31;99524.03;;;12.10;91.36
51759;BME280;66684;47.568;18.734;2023-03-21T08:29:58;99522.69;;;12.21;91.91
51759;BME280;66684;47.568;18.734;2023-03-21T08:32:26;99523.53;;;12.20;90.90
51759;BME280;66684;47.568;18.734;2023-03-21T08:34:57;99521.53;;;12.13;91.79
51759;BME280;66684;47.568;18.734;2023-03-21T08:37:23;99527.47;;;12.09;91.30
51759;BME280;66684;47.568;18.734;2023-03-21T08:39:50;99528.94;;;12.01;91.73
51759;BME280;66684;47.568;18.734;2023-03-21T08:42:16;99522.97;;;12.03;91.67
51759;BME280;66684;47.568;18.734;2023-03-21T08:44:42;99521.25;;;12.04;90.48
51759;BME280;66684;47.568;18.734;2023-03-21T08:47:08;99533.56;;;12.11;91.00
51759;BME280;66684;47.568;18.734;2023-03-21T08:49:35;99531.75;;;12.08;90.69
51759;BME280;66684;47.568;18.734;2023-03-21T08:52:01;99530.88;;;12.08;90.16
51759;BME280;66684;47.568;18.734;2023-03-21T08:54:27;99541.84;;;12.26;90.20
51759;BME280;66684;47.568;18.734;2023-03-21T08:56:53;99529.72;;;12.25;90.76
51759;BME280;66684;47.568;18.734;2023-03-21T08:59:19;99534.22;;;12.31;89.27
51759;BME280;66684;47.568;18.734;2023-03-21T09:01:45;99533.12;;;12.24;90.75
51759;BME280;66684;47.568;18.734;2023-03-21T09:04:12;99528.34;;;12.36;90.45
51759;BME280;66684;47.568;18.734;2023-03-21T09:06:39;99521.72;;;12.73;90.69
51759;BME280;66684;47.568;18.734;2023-03-21T09:09:15;99526.22;;;12.79;88.00
51759;BME280;66684;47.568;18.734;2023-03-21T09:11:41;99522.44;;;13.26;84.72
51759;BME280;66684;47.568;18.734;2023-03-21T09:14:07;99525.50;;;13.13;84.65
51759;BME280;66684;47.568;18.734;2023-03-21T09:16:34;99527.44;;;12.90;86.02
51759;BME280;66684;47.568;18.734;2023-03-21T09:19:00;99523.19;;;12.93;85.50
51759;BME280;66684;47.568;18.734;2023-03-21T09:21:29;99524.38;;;13.03;86.14
51759;BME280;66684;47.568;18.734;2023-03-21T09:23:56;99525.00;;;13.25;84.58
51759;BME280;66684;47.568;18.734;2023-03-21T09:26:24;99521.91;;;13.08;82.68
51759;BME280;66684;47.568;18.734;2023-03-21T09:28:53;99513.97;;;13.32;84.02
51759;BME280;66684;47.568;18.734;2023-03-21T09:31:20;99517.31;;;13.58;82.20
51759;BME280;66684;47.568;18.734;2023-03-21T09:33:51;99511.28;;;13.59;82.56
51759;BME280;66684;47.568;18.734;2023-03-21T09:36:18;99515.91;;;13.70;81.95
51759;BME280;66684;47.568;18.734;2023-03-21T09:38:47;99512.53;;;13.74;82.82
51759;BME280;66684;47.568;18.734;2023-03-21T09:44:29;99513.63;;;14.17;74.99
51759;BME280;66684;47.568;18.734;2023-03-21T09:47:19;99512.75;;;14.17;75.01
51759;BME280;66684;47.568;18.734;2023-03-21T09:50:01;99508.56;;;14.22;75.79
51759;BME280;66684;47.568;18.734;2023-03-21T09:52:35;99507.84;;;14.27;71.90
51759;BME280;66684;47.568;18.734;2023-03-21T09:55:16;99499.16;;;14.27;72.53
51759;BME280;66684;47.568;18.734;2023-03-21T09:57:44;99503.38;;;14.23;73.53
51759;BME280;66684;47.568;18.734;2023-03-21T10:00:17;99499.78;;;14.18;72.31
51759;BME280;66684;47.568;18.734;2023-03-21T10:02:48;99497.78;;;14.43;71.00
51759;BME280;66684;47.568;18.734;2023-03-21T10:05:20;99502.72;;;14.68;69.47
51759;BME280;66684;47.568;18.734;2023-03-21T10:10:26;99498.75;;;14.84;62.95
51759;BME280;66684;47.568;18.734;2023-03-21T10:12:54;99495.50;;;14.55;62.48
51759;BME280;66684;47.568;18.734;2023-03-21T10:15:24;99492.56;;;14.77;63.22
51759;BME280;66684;47.568;18.734;2023-03-21T10:17:54;99482.41;;;14.90;60.75
51759;BME280;66684;47.568;18.734;2023-03-21T10:20:26;99492.38;;;15.10;60.76
51759;BME280;66684;47.568;18.734;2023-03-21T10:22:55;99487.28;;;15.17;59.28
51759;BME280;66684;47.568;18.734;2023-03-21T10:25:39;99479.75;;;14.88;61.63
51759;BME280;66684;47.568;18.734;2023-03-21T10:28:10;99483.75;;;15.15;61.68
51759;BME280;66684;47.568;18.734;2023-03-21T10:30:48;99474.03;;;15.48;61.55
51759;BME280;66684;47.568;18.734;2023-03-21T10:33:18;99476.56;;;15.45;58.03
51759;BME280;66684;47.568;18.734;2023-03-21T10:35:50;99493.09;;;15.47;56.87
51759;BME280;66684;47.568;18.734;2023-03-21T10:38:19;99487.66;;;15.35;57.49
51759;BME280;66684;47.568;18.734;2023-03-21T10:40:47;99480.94;;;15.46;55.80
51759;BME280;66684;47.568;18.734;2023-03-21T10:43:19;99479.34;;;15.54;55.57
51759;BME280;66684;47.568;18.734;2023-03-21T10:45:55;99470.94;;;15.68;57.35
51759;BME280;66684;47.568;18.734;2023-03-21T10:48:22;99482.84;;;15.56;56.95
51759;BME280;66684;47.568;18.734;2023-03-21T10:50:51;99469.97;;;15.19;59.33
51759;BME280;66684;47.568;18.734;2023-03-21T10:53:21;99469.63;;;15.02;59.91
51759;BME280;66684;47.568;18.734;2023-03-21T10:55:51;99475.66;;;14.59;60.99
51759;BME280;66684;47.568;18.734;2023-03-21T10:58:21;99468.22;;;14.75;61.18
51759;BME280;66684;47.568;18.734;2023-03-21T11:00:56;99461.06;;;15.07;62.04
51759;BME280;66684;47.568;18.734;2023-03-21T11:03:29;99455.59;;;15.39;59.79
51759;BME280;66684;47.568;18.734;2023-03-21T11:06:49;99438.66;;;15.61;56.44
51759;BME280;66684;47.568;18.734;2023-03-21T11:08:48;99446.84;;;15.81;53.93
51759;BME280;66684;47.568;18.734;2023-03-21T11:11:23;99450.66;;;16.00;54.52
51759;BME280;66684;47.568;18.734;2023-03-21T11:13:56;99454.97;;;15.98;54.32
51759;BME280;66684;47.568;18.734;2023-03-21T11:16:41;99441.78;;;15.90;54.43
51759;BME280;66684;47.568;18.734;2023-03-21T11:19:25;99441.16;;;16.03;54.81
51759;BME280;66684;47.568;18.734;2023-03-21T11:21:52;99433.34;;;16.03;54.37
51759;BME280;66684;47.568;18.734;2023-03-21T11:24:18;99426.69;;;16.24;54.92
51759;BME280;66684;47.568;18.734;2023-03-21T11:26:47;99411.09;;;16.27;55.13
51759;BME280;66684;47.568;18.734;2023-03-21T11:29:25;99412.13;;;16.38;54.72
51759;BME280;66684;47.568;18.734;2023-03-21T11:31:57;99415.59;;;16.37;55.07
51759;BME280;66684;47.568;18.734;2023-03-21T11:34:30;99410.00;;;16.11;56.18
51759;BME280;66684;47.568;18.734;2023-03-21T11:37:00;99406.91;;;15.82;57.40
51759;BME280;66684;47.568;18.734;2023-03-21T11:39:36;99410.12;;;15.66;58.00
51759;BME280;66684;47.568;18.734;2023-03-21T11:42:23;99409.34;;;15.23;58.88
51759;BME280;66684;47.568;18.734;2023-03-21T11:44:57;99404.44;;;14.96;59.96
51759;BME280;66684;47.568;18.734;2023-03-21T11:47:25;99404.91;;;14.75;60.00
51759;BME280;66684;47.568;18.734;2023-03-21T11:49:51;99409.34;;;14.79;57.85
51759;BME280;66684;47.568;18.734;2023-03-21T11:52:36;99403.16;;;14.74;58.09
51759;BME280;66684;47.568;18.734;2023-03-21T11:58:36;99401.69;;;15.79;56.59
51759;BME280;66684;47.568;18.734;2023-03-21T12:04:06;99385.69;;;15.60;56.60
51759;BME280;66684;47.568;18.734;2023-03-21T12:06:51;99374.97;;;15.94;54.47
51759;BME280;66684;47.568;18.734;2023-03-21T12:18:09;99378.66;;;15.06;53.78
51759;BME280;66684;47.568;18.734;2023-03-21T12:23:33;99373.44;;;15.53;52.66
51759;BME280;66684;47.568;18.734;2023-03-21T12:39:38;99360.78;;;15.25;53.90
51759;BME280;66684;47.568;18.734;2023-03-21T12:45:04;99359.88;;;15.23;51.99
51759;BME280;66684;47.568;18.734;2023-03-21T12:47:35;99352.63;;;15.06;50.91
51759;BME280;66684;47.568;18.734;2023-03-21T12:50:12;99342.34;;;15.13;50.55
51759;BME280;66684;47.568;18.734;2023-03-21T12:52:49;99348.88;;;15.39;50.18
51759;BME280;66684;47.568;18.734;2023-03-21T12:58:15;99329.97;;;16.05;49.12
51759;BME280;66684;47.568;18.734;2023-03-21T13:05:55;99330.69;;;15.95;45.23
51759;BME280;66684;47.568;18.734;2023-03-21T13:08:38;99333.00;;;15.77;44.94
51759;BME280;66684;47.568;18.734;2023-03-21T13:11:07;99315.22;;;15.51;45.50
51759;BME280;66684;47.568;18.734;2023-03-21T13:14:28;99320.97;;;15.83;45.09
51759;BME280;66684;47.568;18.734;2023-03-21T13:29:51;99310.78;;;15.99;47.30
51759;BME280;66684;47.568;18.734;2023-03-21T13:32:29;99300.53;;;16.14;47.34
51759;BME280;66684;47.568;18.734;2023-03-21T13:34:58;99313.09;;;16.42;44.87
51759;BME280;66684;47.568;18.734;2023-03-21T13:37:31;99308.63;;;16.34;45.18
51759;BME280;66684;47.568;18.734;2023-03-21T13:40:05;99301.56;;;16.27;44.68
51759;BME280;66684;47.568;18.734;2023-03-21T13:42:42;99298.16;;;16.31;45.18
51759;BME280;66684;47.568;18.734;2023-03-21T13:45:11;99303.12;;;16.09;45.26
51759;BME280;66684;47.568;18.734;2023-03-21T13:47:55;99302.59;;;16.36;43.33
51759;BME280;66684;47.568;18.734;2023-03-21T13:50:35;99300.94;;;16.46;46.59
51759;BME280;66684;47.568;18.734;2023-03-21T13:55:28;99295.06;;;16.64;47.05
51759;BME280;66684;47.568;18.734;2023-03-21T13:57:55;99287.00;;;16.41;46.96
51759;BME280;66684;47.568;18.734;2023-03-21T14:00:28;99290.16;;;16.15;47.15
51759;BME280;66684;47.568;18.734;2023-03-21T14:02:58;99295.31;;;16.12;47.02
51759;BME280;66684;47.568;18.734;2023-03-21T14:05:26;99282.81;;;15.88;46.42
51759;BME280;66684;47.568;18.734;2023-03-21T14:07:59;99284.94;;;15.56;45.75
51759;BME280;66684;47.568;18.734;2023-03-21T14:10:34;99284.81;;;15.50;48.01
51759;BME280;66684;47.568;18.734;2023-03-21T14:13:04;99282.97;;;15.43;49.64
51759;BME280;66684;47.568;18.734;2023-03-21T14:15:41;99275.00;;;15.32;50.01
51759;BME280;66684;47.568;18.734;2023-03-21T14:18:14;99274.22;;;15.38;48.66
51759;BME280;66684;47.568;18.734;2023-03-21T14:20:40;99274.12;;;15.32;46.76
51759;BME280;66684;47.568;18.734;2023-03-21T14:23:13;99271.41;;;15.24;47.49
51759;BME280;66684;47.568;18.734;2023-03-21T14:25:39;99265.66;;;15.45;46.34
51759;BME280;66684;47.568;18.734;2023-03-21T14:28:13;99255.69;;;15.73;45.86
51759;BME280;66684;47.568;18.734;2023-03-21T14:30:41;99253.31;;;15.89;46.29
51759;BME280;66684;47.568;18.734;2023-03-21T14:33:31;99250.84;;;16.00;45.51
51759;BME280;66684;47.568;18.734;2023-03-21T14:35:59;99249.03;;;15.93;46.36
51759;BME280;66684;47.568;18.734;2023-03-21T14:38:33;99254.22;;;15.93;47.08
51759;BME280;66684;47.568;18.734;2023-03-21T14:40:59;99253.44;;;16.00;46.93
51759;BME280;66684;47.568;18.734;2023-03-21T14:43:25;99253.28;;;15.88;46.94
51759;BME280;66684;47.568;18.734;2023-03-21T14:45:54;99255.94;;;15.91;47.53